[ EDKA 191120Z AUTO 23009KT 9999 ///////// 16/13 Q1012 ]
Windrichtung (graph.)
Inst: 240° 9.5 kt
2min: 238° 10.1 kt
10min: 237° 9.8 kt
Extrem: 208° – 262° 13.2 kt – 6.4 kt
Crosswind: 2.1 kt
Luftdruck (graph.)
QNH: 1012 hPa Temp: 15.8 °C
QNH: 29.88 inHg DewP: 12.5 °C
QFE: 989 hPa Hum: 80.7 %
QFE: 29.22 inHg